createdAt,value
2022-09-21T00:00:55.613Z,532.7
2022-09-21T00:01:58.461Z,533.2
2022-09-21T00:03:01.035Z,532.8
2022-09-21T00:04:03.102Z,532.9
2022-09-21T00:05:05.045Z,532.9
2022-09-21T00:06:06.975Z,532.9
2022-09-21T00:07:08.883Z,532.8
2022-09-21T00:08:11.372Z,532.8
2022-09-21T00:09:13.842Z,532.6
2022-09-21T00:10:16.376Z,533.5
2022-09-21T00:11:18.848Z,533.4
2022-09-21T00:12:21.314Z,532.9
2022-09-21T00:13:23.792Z,533
2022-09-21T00:14:25.975Z,533
2022-09-21T00:15:28.481Z,533.4
2022-09-21T00:16:31.234Z,533.6
2022-09-21T00:17:33.436Z,533.5
2022-09-21T00:18:36.060Z,533.6
2022-09-21T00:19:38.536Z,533.5
2022-09-21T00:20:41.007Z,533.3
2022-09-21T00:21:43.471Z,533.3
2022-09-21T00:22:45.675Z,533.4
2022-09-21T00:23:47.949Z,533.3
2022-09-21T00:24:50.423Z,533
2022-09-21T00:25:52.949Z,533.3
2022-09-21T00:26:55.413Z,533
2022-09-21T00:27:57.897Z,533.3
2022-09-21T00:29:00.372Z,533.1
2022-09-21T00:30:02.566Z,533.3
2022-09-21T00:31:04.756Z,533.2
2022-09-21T00:32:07.618Z,533.3
2022-09-21T00:33:10.119Z,533.4
2022-09-21T00:34:12.317Z,533.4
2022-09-21T00:35:14.531Z,533.3
2022-09-21T00:36:17.012Z,533.5
2022-09-21T00:37:19.470Z,533.5
2022-09-21T00:38:21.677Z,533.2
2022-09-21T00:39:24.216Z,533
2022-09-21T00:40:27.001Z,533
2022-09-21T00:41:29.553Z,533.5
2022-09-21T00:42:32.052Z,533.1
2022-09-21T00:43:34.521Z,533.2
2022-09-21T00:44:36.434Z,533.4
2022-09-21T00:45:38.954Z,533.4
2022-09-21T00:46:40.927Z,533.4
2022-09-21T00:47:43.409Z,533.3
2022-09-21T00:48:45.898Z,533.3
2022-09-21T00:49:48.366Z,533.2
2022-09-21T00:50:50.860Z,533.3
2022-09-21T00:51:53.325Z,533.5
2022-09-21T00:52:55.794Z,533.3
2022-09-21T00:53:57.991Z,533.2
2022-09-21T00:55:00.488Z,533.1
2022-09-21T00:56:03.068Z,533
2022-09-21T00:57:05.598Z,533.2
2022-09-21T00:58:07.791Z,533.2
2022-09-21T00:59:10.267Z,533.3
2022-09-21T01:00:12.466Z,533.3
2022-09-21T01:01:14.928Z,533.2
2022-09-21T01:02:17.462Z,533.2
2022-09-21T01:03:19.958Z,533.5
2022-09-21T01:04:22.165Z,533.5
2022-09-21T01:05:24.086Z,533.2
2022-09-21T01:06:26.586Z,533.4
2022-09-21T01:07:28.518Z,533.5
2022-09-21T01:08:30.990Z,533.5
2022-09-21T01:09:33.185Z,533.6
2022-09-21T01:10:35.676Z,533.2
2022-09-21T01:11:38.148Z,533.7
2022-09-21T01:12:40.143Z,533.7
2022-09-21T01:13:42.630Z,533.3
2022-09-21T01:14:45.096Z,533.9
2022-09-21T01:15:47.571Z,533.6
2022-09-21T01:16:50.048Z,533.6
2022-09-21T01:17:52.263Z,533.7
2022-09-21T01:18:54.735Z,533.7
2022-09-21T01:19:57.207Z,533.8
2022-09-21T01:20:59.693Z,533.8
2022-09-21T01:22:02.190Z,534.1
2022-09-21T01:23:04.660Z,533.8
2022-09-21T01:24:07.156Z,533.9
2022-09-21T01:25:09.367Z,533.7
2022-09-21T01:26:11.857Z,534.1
2022-09-21T01:27:14.342Z,534
2022-09-21T01:28:16.597Z,533.7
2022-09-21T01:29:18.802Z,534.1
2022-09-21T01:30:20.999Z,534.1
2022-09-21T01:31:23.734Z,534
2022-09-21T01:32:26.211Z,534
2022-09-21T01:33:28.688Z,534.2
2022-09-21T01:34:30.880Z,534
2022-09-21T01:35:33.079Z,534
2022-09-21T01:36:35.289Z,533.9
2022-09-21T01:37:37.869Z,534.4
2022-09-21T01:38:40.326Z,534.2
2022-09-21T01:39:42.809Z,534.2
2022-09-21T01:40:45.873Z,534.4
2022-09-21T01:41:48.373Z,533.9
2022-09-21T01:42:50.848Z,533.9
2022-09-21T01:43:53.472Z,533.8
2022-09-21T01:44:55.657Z,533.5
2022-09-21T01:45:58.185Z,533.8
2022-09-21T01:47:00.419Z,533.5
2022-09-21T01:48:02.618Z,533.5
2022-09-21T01:49:05.285Z,533.7
2022-09-21T01:50:07.544Z,533.5
2022-09-21T01:51:09.737Z,533.4
2022-09-21T01:52:11.946Z,533.3
2022-09-21T01:53:14.434Z,533.5
2022-09-21T01:54:16.946Z,533.4
2022-09-21T01:55:19.477Z,533.6
2022-09-21T01:56:21.948Z,533.4
2022-09-21T01:57:24.449Z,533.5
2022-09-21T01:58:26.919Z,533.8
2022-09-21T01:59:29.533Z,533.6
2022-09-21T02:00:32.112Z,534
2022-09-21T02:01:34.596Z,533.6
2022-09-21T02:02:37.067Z,533.3
2022-09-21T02:03:39.264Z,533.7
2022-09-21T02:04:41.456Z,533.9
2022-09-21T02:05:43.922Z,533.6
2022-09-21T02:07:00.779Z,533.5
2022-09-21T02:08:03.249Z,534.2
2022-09-21T02:09:05.732Z,533.4
2022-09-21T02:10:07.940Z,533.7
2022-09-21T02:11:09.844Z,533.5
2022-09-21T02:13:20.186Z,533.7
2022-09-21T02:14:22.655Z,533.9
2022-09-21T02:15:25.214Z,533.8
2022-09-21T02:16:27.632Z,533.8
2022-09-21T02:17:30.128Z,534.1
2022-09-21T02:18:32.593Z,533.9
2022-09-21T02:19:35.083Z,534.3
2022-09-21T02:20:37.262Z,534.5
2022-09-21T02:21:39.745Z,534
2022-09-21T02:22:42.232Z,533.9
2022-09-21T02:23:44.430Z,534
2022-09-21T02:24:46.915Z,534.4
2022-09-21T02:25:49.398Z,534.3
2022-09-21T02:26:51.872Z,534
2022-09-21T02:27:54.354Z,533.8
2022-09-21T02:28:57.076Z,533.8
2022-09-21T02:29:59.301Z,534.2
2022-09-21T02:31:01.857Z,534.1
2022-09-21T02:32:04.382Z,533.9
2022-09-21T02:33:06.557Z,534.1
2022-09-21T02:34:09.232Z,533.8
2022-09-21T02:35:11.716Z,533.9
2022-09-21T02:36:14.198Z,534.2
2022-09-21T02:37:16.668Z,534
2022-09-21T02:38:18.866Z,533.7
2022-09-21T02:39:21.342Z,533.8
2022-09-21T02:40:23.956Z,533.5
2022-09-21T02:41:26.469Z,534
2022-09-21T02:42:28.951Z,533.7
2022-09-21T02:43:31.441Z,533.5
2022-09-21T02:44:33.940Z,533.5
2022-09-21T02:45:36.139Z,533.2
2022-09-21T02:46:38.998Z,533.5
2022-09-21T02:47:41.494Z,533.4
2022-09-21T02:48:43.710Z,533.6
2022-09-21T02:49:46.178Z,533.4
2022-09-21T02:50:48.664Z,533.4
2022-09-21T02:51:51.209Z,533.1
2022-09-21T02:52:53.683Z,533.4
2022-09-21T02:53:56.151Z,533.7
2022-09-21T02:54:58.058Z,533.7
2022-09-21T02:56:00.550Z,533.7
2022-09-21T02:57:02.756Z,533.5
2022-09-21T02:58:05.229Z,533.3
2022-09-21T02:59:08.341Z,533.2
2022-09-21T03:00:10.563Z,533
2022-09-21T03:01:12.827Z,533.3
2022-09-21T03:02:15.708Z,533.4
2022-09-21T03:03:18.240Z,533.3
2022-09-21T03:04:20.428Z,533.4
2022-09-21T03:05:22.618Z,533.4
2022-09-21T03:06:25.086Z,533.3
2022-09-21T03:07:27.263Z,533.8
2022-09-21T03:08:29.760Z,533.5
2022-09-21T03:09:32.230Z,533.6
2022-09-21T03:10:34.425Z,533.8
2022-09-21T03:11:36.612Z,533.6
2022-09-21T03:12:38.818Z,533.7
2022-09-21T03:13:41.010Z,533.4
2022-09-21T03:14:42.643Z,533.2
2022-09-21T03:15:45.429Z,533.3
2022-09-21T03:16:47.936Z,533.2
2022-09-21T03:17:50.546Z,533.3
2022-09-21T03:18:53.014Z,533.1
2022-09-21T03:19:55.476Z,533.2
2022-09-21T03:20:57.946Z,533.3
2022-09-21T03:21:59.845Z,533.3
2022-09-21T03:23:02.329Z,532.9
2022-09-21T03:24:04.800Z,533.2
2022-09-21T03:25:06.998Z,532.9
2022-09-21T03:26:09.490Z,532.9
2022-09-21T03:27:11.977Z,532.9
2022-09-21T03:28:13.883Z,532.9
2022-09-21T03:29:16.358Z,532.9
2022-09-21T03:30:18.824Z,532.7
2022-09-21T03:31:21.551Z,532.8
2022-09-21T03:32:23.739Z,532.7
2022-09-21T03:33:26.273Z,532.7
2022-09-21T03:34:28.457Z,532.2
2022-09-21T03:35:31.234Z,532.8
2022-09-21T03:36:33.790Z,532.5
2022-09-21T03:38:41.306Z,532.7
2022-09-21T03:39:43.811Z,532.5
2022-09-21T03:40:46.314Z,532.6
2022-09-21T03:41:48.795Z,533.1
2022-09-21T03:42:51.373Z,532.9
2022-09-21T03:43:53.030Z,532.8
2022-09-21T03:44:55.231Z,532.9
2022-09-21T03:45:58.031Z,532.8
2022-09-21T03:47:00.761Z,532.7
2022-09-21T03:48:03.441Z,532.8
2022-09-21T03:49:05.978Z,533
2022-09-21T03:51:13.466Z,532.9
2022-09-21T03:52:15.937Z,532.5
2022-09-21T03:53:18.446Z,532.7
2022-09-21T03:54:20.931Z,532.9
2022-09-21T03:55:23.163Z,532.6
2022-09-21T03:56:25.653Z,532.8
2022-09-21T03:57:28.149Z,533.2
2022-09-21T03:58:30.398Z,532.9
2022-09-21T03:59:32.885Z,532.8
2022-09-21T04:00:34.825Z,532.8
2022-09-21T04:01:37.287Z,532.9
2022-09-21T04:02:40.067Z,532.7
2022-09-21T04:03:42.582Z,532.8
2022-09-21T04:04:45.156Z,532.9
2022-09-21T04:05:47.662Z,532.7
2022-09-21T04:06:49.846Z,532.4
2022-09-21T04:07:52.320Z,532.7
2022-09-21T04:08:54.501Z,532.7
2022-09-21T04:09:56.971Z,532.5
2022-09-21T04:10:59.446Z,532.6
2022-09-21T04:12:01.652Z,532.8
2022-09-21T04:13:03.575Z,532.4
2022-09-21T04:14:05.795Z,532.5
2022-09-21T04:15:07.695Z,532.1
2022-09-21T04:16:10.554Z,532.1
2022-09-21T04:17:13.375Z,532
2022-09-21T04:18:15.898Z,532.2
2022-09-21T04:19:18.366Z,531.9
2022-09-21T04:20:21.076Z,532
2022-09-21T04:21:23.594Z,531.8
2022-09-21T04:22:25.821Z,531.8
2022-09-21T04:23:28.045Z,531.5
2022-09-21T04:24:30.250Z,531.5
2022-09-21T04:25:32.440Z,531.6
2022-09-21T04:26:34.931Z,531.5
2022-09-21T04:27:37.397Z,531.7
2022-09-21T04:28:39.867Z,531.6
2022-09-21T04:29:42.136Z,531.7
2022-09-21T04:30:44.918Z,532
2022-09-21T04:31:47.439Z,531.8
2022-09-21T04:32:49.914Z,532
2022-09-21T04:33:51.883Z,532
2022-09-21T04:34:54.085Z,531.7
2022-09-21T04:35:56.654Z,531.9
2022-09-21T04:36:59.131Z,531.8
2022-09-21T04:38:01.603Z,532
2022-09-21T04:39:03.803Z,531.8
2022-09-21T04:40:06.419Z,531.5
2022-09-21T04:41:08.371Z,531.6
2022-09-21T04:42:10.571Z,531.5
2022-09-21T04:43:12.778Z,531.7
2022-09-21T04:44:14.991Z,531.3
2022-09-21T04:45:17.474Z,531.1
2022-09-21T04:46:20.363Z,531.1
2022-09-21T04:47:22.613Z,531.1
2022-09-21T04:48:24.542Z,530.9
2022-09-21T04:49:26.759Z,530.7
2022-09-21T04:50:28.687Z,530.7
2022-09-21T04:51:30.950Z,530.1
2022-09-21T04:52:33.411Z,530.6
2022-09-21T04:53:35.878Z,530.5
2022-09-21T04:54:38.348Z,530
2022-09-21T04:55:40.816Z,530.4
2022-09-21T04:56:43.012Z,529.4
2022-09-21T04:57:45.481Z,529.9
2022-09-21T04:58:47.946Z,529.8
2022-09-21T04:59:50.425Z,530.2
2022-09-21T05:00:53.219Z,529.9
2022-09-21T05:01:55.524Z,529.8
2022-09-21T05:02:58.001Z,529.2
2022-09-21T05:04:00.546Z,529.2
2022-09-21T05:05:03.185Z,529.1
2022-09-21T05:06:05.675Z,529.3
2022-09-21T05:07:08.214Z,529.2
2022-09-21T05:08:10.686Z,528.9
2022-09-21T05:09:12.868Z,529
2022-09-21T05:10:15.338Z,528.6
2022-09-21T05:11:17.853Z,528.8
2022-09-21T05:12:20.051Z,528.8
2022-09-21T05:13:22.253Z,528.8
2022-09-21T05:14:24.733Z,528.5
2022-09-21T05:15:27.332Z,528.6
2022-09-21T05:16:29.841Z,528.4
2022-09-21T05:17:32.313Z,528.3
2022-09-21T05:18:34.810Z,528.5
2022-09-21T05:19:37.278Z,528.5
2022-09-21T05:20:39.777Z,528.5
2022-09-21T05:21:41.682Z,528.4
2022-09-21T05:22:44.344Z,528.1
2022-09-21T05:23:46.812Z,528.5
2022-09-21T05:24:49.021Z,528.6
2022-09-21T05:25:51.508Z,528.4
2022-09-21T05:26:53.720Z,528.5
2022-09-21T05:27:56.198Z,528.4
2022-09-21T05:28:58.781Z,528.4
2022-09-21T05:30:01.303Z,527.7
2022-09-21T05:32:08.819Z,528.1
2022-09-21T05:33:11.301Z,528.1
2022-09-21T05:34:13.510Z,528.5
2022-09-21T05:35:15.977Z,528.8
2022-09-21T05:36:18.194Z,528.5
2022-09-21T05:37:20.096Z,528.6
2022-09-21T05:38:22.370Z,528.7
2022-09-21T05:39:24.867Z,529
2022-09-21T05:40:27.452Z,528.6
2022-09-21T05:41:29.978Z,528.3
2022-09-21T05:42:32.450Z,528.5
2022-09-21T05:43:34.930Z,528.4
2022-09-21T05:44:37.130Z,528
2022-09-21T05:45:39.583Z,528
2022-09-21T05:46:41.769Z,527.8
2022-09-21T05:47:43.991Z,528.3
2022-09-21T05:48:46.467Z,528.1
2022-09-21T05:49:48.646Z,528
2022-09-21T05:50:50.570Z,528.3
2022-09-21T05:51:52.777Z,528
2022-09-21T05:52:54.710Z,528.1
2022-09-21T05:53:57.306Z,528.1
2022-09-21T05:54:58.950Z,527.8
2022-09-21T05:56:01.428Z,527.9
2022-09-21T05:57:03.608Z,528.2
2022-09-21T05:58:06.105Z,528.1
2022-09-21T05:59:08.581Z,528.1
2022-09-21T06:00:11.062Z,527.8
2022-09-21T06:01:13.747Z,527.8
2022-09-21T06:02:16.328Z,527.8
2022-09-21T06:03:19.824Z,527.6
2022-09-21T06:04:22.315Z,527.6
2022-09-21T06:05:24.802Z,527.6
2022-09-21T06:06:26.704Z,527.5
2022-09-21T06:07:29.214Z,527.6
2022-09-21T06:08:31.429Z,527.6
2022-09-21T06:09:34.010Z,527.3
2022-09-21T06:10:35.926Z,527.2
2022-09-21T06:11:38.413Z,527.5
2022-09-21T06:12:40.879Z,527.4
2022-09-21T06:13:43.358Z,527.3
2022-09-21T06:14:45.277Z,527.1
2022-09-21T06:15:47.210Z,527.1
2022-09-21T06:16:50.030Z,526.9
2022-09-21T06:17:52.531Z,526.8
2022-09-21T06:18:54.745Z,526.9
2022-09-21T06:19:57.237Z,526.9
2022-09-21T06:20:59.730Z,526.7
2022-09-21T06:22:02.038Z,526.7
2022-09-21T06:23:04.532Z,527.1
2022-09-21T06:24:07.006Z,526.9
2022-09-21T06:25:09.263Z,526.9
2022-09-21T06:26:11.737Z,526.9
2022-09-21T06:27:14.214Z,526.7
2022-09-21T06:28:16.686Z,526.5
2022-09-21T06:29:19.158Z,526.6
2022-09-21T06:30:21.644Z,526.3
2022-09-21T06:31:24.115Z,526.6
2022-09-21T06:32:25.738Z,526.7
2022-09-21T06:33:28.209Z,526.7
2022-09-21T06:34:30.420Z,526.5
2022-09-21T06:35:32.889Z,526.6
2022-09-21T06:36:34.811Z,526.3
2022-09-21T06:37:36.739Z,526.2
2022-09-21T06:38:38.968Z,526.4
2022-09-21T06:39:41.166Z,526.2
2022-09-21T06:40:44.091Z,526.3
2022-09-21T06:41:46.295Z,526.2
2022-09-21T06:42:48.473Z,526
2022-09-21T06:43:50.697Z,526
2022-09-21T06:44:53.172Z,526
2022-09-21T06:45:55.710Z,525.8
2022-09-21T06:46:58.261Z,525.8
2022-09-21T06:48:00.768Z,525.8
2022-09-21T06:49:02.960Z,525.5
2022-09-21T06:50:05.467Z,525.6
2022-09-21T06:51:07.664Z,525.5
2022-09-21T06:52:09.884Z,525.5
2022-09-21T06:53:12.082Z,525.3
2022-09-21T06:54:14.278Z,525.7
2022-09-21T06:55:16.466Z,525.7
2022-09-21T06:56:18.697Z,525.6
2022-09-21T06:57:21.157Z,525.7
2022-09-21T06:58:23.637Z,525.9
2022-09-21T06:59:25.833Z,525.9
2022-09-21T07:00:28.180Z,526
2022-09-21T07:01:31.056Z,525.9
2022-09-21T07:02:33.581Z,525.7
2022-09-21T07:03:36.052Z,525.6
2022-09-21T07:04:38.246Z,525.5
2022-09-21T07:05:40.182Z,526
2022-09-21T07:06:42.677Z,525.9
2022-09-21T07:07:44.874Z,525.9
2022-09-21T07:10:57.126Z,525.4
2022-09-21T07:11:59.667Z,525.6
2022-09-21T07:13:01.892Z,525.7
2022-09-21T07:14:04.074Z,525.8
2022-09-21T07:15:06.279Z,525.4
2022-09-21T07:16:08.769Z,525.5
2022-09-21T07:18:17.030Z,525.6
2022-09-21T07:19:19.264Z,525.9
2022-09-21T07:20:21.465Z,525.8
2022-09-21T07:21:23.957Z,525.8
2022-09-21T07:22:26.359Z,525.8
2022-09-21T07:23:28.291Z,525.9
2022-09-21T07:24:30.782Z,525.9
2022-09-21T07:25:32.983Z,525.6
2022-09-21T07:26:35.478Z,525.8
2022-09-21T07:27:37.740Z,525.6
2022-09-21T07:28:40.220Z,525.6
2022-09-21T07:29:42.411Z,525.6
2022-09-21T07:30:44.625Z,526.2
2022-09-21T07:31:47.017Z,525.8
2022-09-21T07:32:49.533Z,525.8
2022-09-21T07:33:52.008Z,525.6
2022-09-21T07:34:54.479Z,525.6
2022-09-21T07:35:56.685Z,525.9
2022-09-21T07:36:59.266Z,525.8
2022-09-21T07:38:01.750Z,525.7
2022-09-21T07:39:03.953Z,525.9
2022-09-21T07:40:06.861Z,525.6
2022-09-21T07:41:09.098Z,525.2
2022-09-21T07:42:11.592Z,525.4
2022-09-21T07:43:14.168Z,525.7
2022-09-21T07:44:16.642Z,525.4
2022-09-21T07:45:19.333Z,525.4
2022-09-21T07:46:21.288Z,525.2
2022-09-21T07:47:23.502Z,525.4
2022-09-21T07:48:25.703Z,525.5
2022-09-21T07:49:27.890Z,525.2
2022-09-21T07:50:30.370Z,525.1
2022-09-21T07:51:32.864Z,525.1
2022-09-21T07:52:35.386Z,525.1
2022-09-21T07:53:37.597Z,524.8
2022-09-21T07:54:39.531Z,525.2
2022-09-21T07:55:41.471Z,524.9
2022-09-21T07:56:43.953Z,525.1
2022-09-21T07:57:46.465Z,524.8
2022-09-21T07:58:49.002Z,525.1
2022-09-21T07:59:50.926Z,524.9
2022-09-21T08:00:53.091Z,525.4
2022-09-21T08:01:55.561Z,524.9
2022-09-21T08:02:57.833Z,524.7
2022-09-21T08:03:59.851Z,525
2022-09-21T08:05:02.083Z,525.3
2022-09-21T08:06:04.349Z,524.9
2022-09-21T08:07:07.091Z,524.9
2022-09-21T08:08:09.649Z,524.7
2022-09-21T08:09:11.853Z,524.8
2022-09-21T08:10:14.056Z,524.9
2022-09-21T08:11:16.552Z,525
2022-09-21T08:12:18.755Z,525
2022-09-21T08:13:20.970Z,525.1
2022-09-21T08:16:34.430Z,524.5
2022-09-21T08:17:37.455Z,525.2
2022-09-21T08:18:40.682Z,525.4
2022-09-21T08:19:42.886Z,525.3
2022-09-21T08:20:45.094Z,525.1
2022-09-21T08:21:47.304Z,525.1
2022-09-21T08:22:49.550Z,525.4
2022-09-21T08:23:51.748Z,525
2022-09-21T08:24:54.223Z,524.7
2022-09-21T08:25:56.432Z,524.9
2022-09-21T08:26:58.938Z,524.8
2022-09-21T08:28:00.846Z,524.9
2022-09-21T08:29:03.340Z,524.8
2022-09-21T08:30:05.832Z,524.4
2022-09-21T08:31:08.601Z,524.6
2022-09-21T08:33:16.878Z,524.7
2022-09-21T08:34:19.069Z,524.4
2022-09-21T08:35:21.551Z,524.6
2022-09-21T08:36:23.819Z,524.9
2022-09-21T08:37:26.311Z,524.5
2022-09-21T08:38:28.797Z,524.6
2022-09-21T08:39:31.429Z,524.7
2022-09-21T08:40:34.386Z,524.4
2022-09-21T08:41:36.930Z,524.4
2022-09-21T08:42:39.404Z,524.5
2022-09-21T08:43:41.899Z,524.4
2022-09-21T08:44:44.411Z,524.5
2022-09-21T08:45:46.322Z,524.5
2022-09-21T08:46:48.937Z,524.3
2022-09-21T08:47:51.489Z,524.3
2022-09-21T08:48:53.714Z,524.2
2022-09-21T08:49:55.910Z,524.2
2022-09-21T08:50:58.394Z,524.4
2022-09-21T08:52:01.368Z,524.3
2022-09-21T08:53:03.851Z,523.9
2022-09-21T08:54:06.866Z,524.2
2022-09-21T08:55:09.076Z,524.2
2022-09-21T08:56:11.283Z,524
2022-09-21T08:57:13.507Z,524.4
2022-09-21T08:58:15.983Z,524.4
2022-09-21T08:59:18.459Z,524
2022-09-21T09:00:20.657Z,524.1
2022-09-21T09:01:23.141Z,524.6
2022-09-21T09:02:25.705Z,524.3
2022-09-21T09:03:28.274Z,524.7
2022-09-21T09:04:30.535Z,524.6
2022-09-21T09:05:33.011Z,524.4
2022-09-21T09:06:35.494Z,524.8
2022-09-21T09:07:37.980Z,525.2
2022-09-21T09:08:39.923Z,525
2022-09-21T09:09:42.128Z,525.1
2022-09-21T09:10:44.627Z,524.8
2022-09-21T09:11:47.101Z,524.6
2022-09-21T09:12:49.614Z,525.2
2022-09-21T09:13:52.086Z,524.9
2022-09-21T09:14:54.559Z,525.1
2022-09-21T09:15:57.332Z,525.4
2022-09-21T09:16:59.924Z,525.1
2022-09-21T09:18:02.128Z,525.6
2022-09-21T09:19:04.845Z,525.8
2022-09-21T09:20:07.077Z,525.4
2022-09-21T09:21:09.705Z,525.2
2022-09-21T09:22:12.339Z,525
2022-09-21T09:23:14.286Z,525.3
2022-09-21T09:24:16.764Z,524.9
2022-09-21T09:25:18.686Z,525.3
2022-09-21T09:26:20.902Z,525.1
2022-09-21T09:27:23.384Z,525.2
2022-09-21T09:28:25.579Z,524.9
2022-09-21T09:29:28.058Z,525.4
2022-09-21T09:30:30.278Z,525.1
2022-09-21T09:31:33.154Z,525.1
2022-09-21T09:32:35.117Z,525.3
2022-09-21T09:33:37.590Z,525
2022-09-21T09:34:40.123Z,524.9
2022-09-21T09:35:42.358Z,524.8
2022-09-21T09:37:49.538Z,525.1
2022-09-21T09:38:51.717Z,525.3
2022-09-21T09:39:53.930Z,525.7
2022-09-21T09:40:56.141Z,524.7
2022-09-21T09:41:58.642Z,525.3
2022-09-21T09:44:05.556Z,525.5
2022-09-21T09:45:08.042Z,525.6
2022-09-21T09:47:15.528Z,525.6
2022-09-21T09:48:17.759Z,526
2022-09-21T09:49:20.301Z,526.1
2022-09-21T09:50:23.040Z,526.6
2022-09-21T09:51:25.566Z,526.5
2022-09-21T09:52:28.067Z,526.5
2022-09-21T09:53:30.556Z,526.9
2022-09-21T09:54:32.774Z,526.9
2022-09-21T09:55:35.252Z,527.4
2022-09-21T09:56:37.730Z,527
2022-09-21T09:57:40.240Z,527
2022-09-21T09:58:42.444Z,527.2
2022-09-21T09:59:44.925Z,527
2022-09-21T10:00:47.409Z,527.4
2022-09-21T10:01:50.240Z,527.8
2022-09-21T10:02:52.268Z,527.7
2022-09-21T10:03:54.715Z,527.7
2022-09-21T10:04:57.203Z,527.6
2022-09-21T10:05:59.719Z,527.6
2022-09-21T10:07:02.265Z,527.7
2022-09-21T10:08:04.491Z,528.1
2022-09-21T10:09:06.697Z,527.9
2022-09-21T10:10:09.198Z,528
2022-09-21T10:11:11.399Z,527.9
2022-09-21T10:12:13.607Z,528.2
2022-09-21T10:13:16.143Z,527.8
2022-09-21T10:14:18.628Z,528.1
2022-09-21T10:15:20.833Z,527.9
2022-09-21T10:16:23.921Z,527.9
2022-09-21T10:17:25.889Z,528.2
2022-09-21T10:18:28.392Z,527.8
2022-09-21T10:19:30.366Z,528.5
2022-09-21T10:20:32.569Z,528.1
2022-09-21T10:21:35.085Z,528
2022-09-21T10:22:37.608Z,528.1
2022-09-21T10:23:40.082Z,528.5
2022-09-21T10:24:41.988Z,528.7
2022-09-21T10:25:44.457Z,528.8
2022-09-21T10:26:46.938Z,528.7
2022-09-21T10:27:49.139Z,528.7
2022-09-21T10:28:51.374Z,528.9
2022-09-21T10:29:53.586Z,528.8
2022-09-21T10:30:56.348Z,528.8
2022-09-21T10:31:58.861Z,529.2
2022-09-21T10:33:01.343Z,529.4
2022-09-21T10:34:03.838Z,529.4
2022-09-21T10:35:06.328Z,529.7
2022-09-21T10:36:07.965Z,529.6
2022-09-21T10:37:10.542Z,529.6
2022-09-21T10:38:12.801Z,529.8
2022-09-21T10:39:15.281Z,529.6
2022-09-21T10:40:18.169Z,529.8
2022-09-21T10:41:20.420Z,529.8
2022-09-21T10:42:22.630Z,530.1
2022-09-21T10:43:25.886Z,530.3
2022-09-21T10:44:29.570Z,529.8
2022-09-21T10:45:32.051Z,530
2022-09-21T10:46:34.707Z,530
2022-09-21T10:47:37.232Z,530.1
2022-09-21T10:48:38.886Z,530
2022-09-21T10:49:41.413Z,530.1
2022-09-21T10:50:43.905Z,530
2022-09-21T10:51:46.371Z,530.2
2022-09-21T10:52:49.486Z,530.2
2022-09-21T10:54:56.976Z,529.8
2022-09-21T10:57:04.466Z,530.3
2022-09-21T10:58:06.939Z,530.4
2022-09-21T10:59:09.148Z,531.1
2022-09-21T11:00:11.637Z,530.7
2022-09-21T11:01:15.862Z,530.8
2022-09-21T11:02:18.546Z,530.6
2022-09-21T11:03:20.765Z,531.1
2022-09-21T11:04:23.236Z,531.2
2022-09-21T11:05:25.761Z,531.1
2022-09-21T11:06:28.234Z,531.3
2022-09-21T11:07:30.712Z,530.8
2022-09-21T11:08:33.223Z,531
2022-09-21T11:09:35.698Z,530.9
2022-09-21T11:10:37.928Z,530.8
2022-09-21T11:11:40.407Z,530.7
2022-09-21T11:12:42.902Z,531.1
2022-09-21T11:13:45.378Z,531.3
2022-09-21T11:14:47.567Z,531.3
2022-09-21T11:15:50.501Z,531.4
2022-09-21T11:16:53.005Z,532.3
2022-09-21T11:17:55.209Z,532.4
2022-09-21T11:18:58.055Z,531.9
2022-09-21T11:20:00.595Z,531.6
2022-09-21T11:21:03.194Z,531.2
2022-09-21T11:22:05.420Z,531.4
2022-09-21T11:23:07.886Z,531.4
2022-09-21T11:24:10.523Z,531.1
2022-09-21T11:25:12.482Z,531
2022-09-21T11:26:14.710Z,531.6
2022-09-21T11:27:17.204Z,531.4
2022-09-21T11:28:19.386Z,531.2
2022-09-21T11:29:21.812Z,531.8
2022-09-21T11:30:24.306Z,532
2022-09-21T11:31:26.828Z,531.9
2022-09-21T11:32:29.031Z,531.9
2022-09-21T11:33:31.507Z,531.8
2022-09-21T11:34:34.002Z,532.4
2022-09-21T11:35:36.215Z,532.4
2022-09-21T11:36:38.411Z,532.5
2022-09-21T11:37:40.880Z,532.7
2022-09-21T11:38:45.386Z,533.2
2022-09-21T11:39:47.899Z,532.7
2022-09-21T11:40:50.375Z,533.3
2022-09-21T11:41:52.316Z,533.5
2022-09-21T11:42:54.511Z,533.5
2022-09-21T11:45:04.034Z,533.8
2022-09-21T11:46:06.441Z,533.9
2022-09-21T11:47:08.954Z,533.6
2022-09-21T11:48:11.431Z,533.8
2022-09-21T11:49:13.639Z,533.5
2022-09-21T11:51:20.882Z,533.9
2022-09-21T11:52:23.153Z,533.8
2022-09-21T11:53:25.629Z,534.1
2022-09-21T11:54:27.538Z,534.3
2022-09-21T11:55:30.062Z,534.4
2022-09-21T11:56:32.561Z,534.2
2022-09-21T11:57:35.061Z,534.4
2022-09-21T11:58:37.270Z,534.6
2022-09-21T11:59:39.471Z,534.8
2022-09-21T12:00:41.691Z,534.5
2022-09-21T12:01:43.899Z,535.1
2022-09-21T12:02:47.140Z,535.1
2022-09-21T12:03:49.457Z,535.3
2022-09-21T12:04:51.944Z,535.2
2022-09-21T12:05:54.149Z,535.1
2022-09-21T12:06:56.367Z,534.7
2022-09-21T12:07:58.871Z,534.8
2022-09-21T12:09:01.347Z,534.9
2022-09-21T12:11:09.913Z,534.8
2022-09-21T12:12:12.112Z,535.2
2022-09-21T12:13:14.084Z,535
2022-09-21T12:14:16.293Z,534.8
2022-09-21T12:15:19.069Z,535.2
2022-09-21T12:16:21.940Z,534.9
2022-09-21T12:17:24.441Z,535.1
2022-09-21T12:18:26.697Z,535.2
2022-09-21T12:19:28.908Z,535.2
2022-09-21T12:20:31.384Z,535.5
2022-09-21T12:21:33.858Z,535.5
2022-09-21T12:22:36.346Z,536
2022-09-21T12:23:38.856Z,536
2022-09-21T12:24:41.057Z,536.3
2022-09-21T12:25:43.551Z,536.4
2022-09-21T12:26:46.065Z,536.1
2022-09-21T12:27:48.271Z,535.8
2022-09-21T12:28:49.718Z,536
2022-09-21T12:29:51.913Z,535.6
2022-09-21T12:32:01.046Z,536.6
2022-09-21T12:33:03.523Z,536.3
2022-09-21T12:34:06.618Z,536.3
2022-09-21T12:35:09.111Z,536.3
2022-09-21T12:36:11.612Z,536.3
2022-09-21T12:37:13.549Z,536.5
2022-09-21T12:38:15.782Z,536.5
2022-09-21T12:39:18.341Z,536.2
2022-09-21T12:40:20.679Z,536.9
2022-09-21T12:41:22.711Z,536.4
2022-09-21T12:42:24.942Z,536.9
2022-09-21T12:43:27.432Z,536.4
2022-09-21T12:44:29.401Z,536.6
2022-09-21T12:45:31.653Z,536.7
2022-09-21T12:46:34.594Z,536.4
2022-09-21T12:47:37.093Z,537
2022-09-21T12:48:39.584Z,536.8
2022-09-21T12:49:42.075Z,537.2
2022-09-21T12:50:44.563Z,536.7
2022-09-21T12:51:46.212Z,537
2022-09-21T12:52:48.410Z,537.3
2022-09-21T12:53:52.621Z,537.4
2022-09-21T12:54:55.125Z,537.2
2022-09-21T12:55:57.611Z,537.1
2022-09-21T12:56:59.829Z,536.8
2022-09-21T12:59:07.965Z,537.2
2022-09-21T13:00:10.195Z,537.2
2022-09-21T13:01:13.369Z,537.2
2022-09-21T13:02:17.409Z,536.9
2022-09-21T13:03:19.890Z,537.2
2022-09-21T13:04:22.093Z,537
2022-09-21T13:05:24.591Z,537.2
2022-09-21T13:06:26.537Z,537.2
2022-09-21T13:07:29.036Z,537.3
2022-09-21T13:08:31.515Z,537.3
2022-09-21T13:09:34.002Z,537.8
2022-09-21T13:10:36.249Z,537.5
2022-09-21T13:11:38.470Z,537.2
2022-09-21T13:12:40.379Z,537.1
2022-09-21T13:13:42.874Z,537.6
2022-09-21T13:14:45.415Z,537.5
2022-09-21T13:15:47.625Z,537.5
2022-09-21T13:16:50.004Z,537.5
2022-09-21T13:17:52.254Z,538.1
2022-09-21T13:18:54.562Z,538.1
2022-09-21T13:19:57.124Z,537.8
2022-09-21T13:20:59.359Z,537.7
2022-09-21T13:22:01.579Z,537.8
2022-09-21T13:23:04.113Z,537.5
2022-09-21T13:24:06.335Z,537.9
2022-09-21T13:25:08.833Z,537.2
2022-09-21T13:26:11.330Z,537.3
2022-09-21T13:27:13.824Z,537.6
2022-09-21T13:28:15.754Z,537.8
2022-09-21T13:29:18.241Z,537.3
2022-09-21T13:30:20.763Z,537.9
2022-09-21T13:32:28.334Z,538.6
2022-09-21T13:33:30.592Z,539
2022-09-21T13:34:32.812Z,539.2
2022-09-21T13:35:35.278Z,538.7
2022-09-21T13:36:37.782Z,538.6
2022-09-21T13:37:40.242Z,538.3
2022-09-21T13:38:42.727Z,539
2022-09-21T13:39:45.200Z,539.1
2022-09-21T13:40:47.976Z,538.6
2022-09-21T13:42:55.598Z,538.9
2022-09-21T13:45:02.786Z,539.1
2022-09-21T13:46:05.490Z,539.4
2022-09-21T13:47:07.731Z,539.1
2022-09-21T13:48:10.226Z,539
2022-09-21T13:49:12.807Z,539.7
2022-09-21T13:50:15.009Z,539.5
2022-09-21T13:51:17.489Z,539.5
2022-09-21T13:52:19.981Z,539.9
2022-09-21T13:53:22.478Z,539.7
2022-09-21T13:54:24.951Z,539.5